No particular awareness of the weather is required.    There are no Weather-warnings


Meteo18 Weather Cam more information Meteo18 Weather Cam


Thunder radar more information blitzortung!


Rain radar more information rain snow radar


Visit our other weather sites:

Template documentation
and downloads

And another site



Weather Underground History page Text

Daily Summary for September 4, 2017 Units:  English    Metric   Both
« Previous Day
Next Day »
Daily Weekly Monthly Yearly Custom
  High: Low: Average:
Temperature: TemperatureC °F 14.3 °F 19.1 °F
Dew Point: DewpointC °F 10.6 °F 13.2 °F
Humidity: Humidity % 52 % 69 %
Wind Speed: WindSpeedKMH mph 0.0 mph 3.6 mph
Wind Gust: WindSpeedGustKMH mph - -
Wind:- - WSW
Pressure: PressurehPa in 1013.8 in -
Precipitation: 0.0 in    
Historical Graphs
 
 
Tabular Data for September 4, 2017
Time Temperature Dew Point Pressure Wind Wind Speed Wind Gust Humidity Rainfall Rate (Hourly)
TemperatureC °F DewpointC °F PressurehPa in Calm     Humidity % HourlyPrecipMM in
00:02 16.2 °F 11.4 °F 1014.4 in Calm   1.6 mph 73 % 0.0 in
00:07 16.2 °F 11.1 °F 1014.4 in SSW 1.6 mph 1.6 mph 72 % 0.0 in
00:12 16.3 °F 10.8 °F 1014.4 in Calm   3.2 mph 70 % 0.0 in
00:17 16.3 °F 10.8 °F 1014.4 in Calm   3.2 mph 70 % 0.0 in
00:22 16.3 °F 10.8 °F 1014.4 in Calm   3.2 mph 70 % 0.0 in
00:27 16.3 °F 11.2 °F 1014.4 in WSW 1.6 mph 1.6 mph 72 % 0.0 in
00:32 16.2 °F 11.1 °F 1014.4 in Calm   1.6 mph 72 % 0.0 in
00:42 16.3 °F 10.8 °F 1014.4 in SSE 1.6 mph 3.2 mph 70 % 0.0 in
00:47 16.3 °F 11.2 °F 1014.4 in WSW 1.6 mph 3.2 mph 72 % 0.0 in
00:52 16.2 °F 11.4 °F 1014.4 in Calm   3.2 mph 73 % 0.0 in
00:57 16.1 °F 11.1 °F 1014.4 in Calm   3.2 mph 72 % 0.0 in
01:02 16.1 °F 11.3 °F 1014.4 in WSW 1.6 mph 1.6 mph 73 % 0.0 in
01:07 16.0 °F 11.6 °F 1014.4 in Calm   3.2 mph 75 % 0.0 in
01:12 15.9 °F 11.7 °F 1014.4 in Calm   3.2 mph 76 % 0.0 in
01:17 15.8 °F 11.8 °F 1014.4 in WSW 1.6 mph 3.2 mph 77 % 0.0 in
01:22 15.9 °F 11.3 °F 1014.4 in WSW 3.2 mph 3.2 mph 74 % 0.0 in
01:32 16.3 °F 10.8 °F 1014.4 in WSW 1.6 mph 8.0 mph 70 % 0.0 in
01:37 16.5 °F 10.8 °F 1014.4 in Calm   6.4 mph 69 % 0.0 in
01:42 16.4 °F 11.1 °F 1014.4 in Calm   1.6 mph 71 % 0.0 in
01:47 16.3 °F 11.0 °F 1014.4 in Calm   1.6 mph 71 % 0.0 in
01:52 16.3 °F 11.0 °F 1014.4 in Calm   1.6 mph 71 % 0.0 in
01:57 16.3 °F 11.0 °F 1014.4 in Calm     71 % 0.0 in
02:02 16.2 °F 11.1 °F 1014.4 in Calm     72 % 0.0 in
02:07 16.2 °F 11.1 °F 1014.1 in Calm     72 % 0.0 in
02:12 16.2 °F 11.1 °F 1014.1 in Calm     72 % 0.0 in
02:17 16.2 °F 11.4 °F 1014.1 in Calm     73 % 0.0 in
02:22 16.1 °F 10.8 °F 1014.1 in Calm     71 % 0.0 in
02:27 16.1 °F 11.1 °F 1014.1 in Calm     72 % 0.0 in
02:32 16.0 °F 11.0 °F 1013.8 in Calm     72 % 0.0 in
02:37 15.9 °F 10.6 °F 1014.1 in Calm     71 % 0.0 in
02:42 16.0 °F 10.7 °F 1013.8 in Calm   3.2 mph 71 % 0.0 in
02:47 15.9 °F 10.6 °F 1013.8 in Calm   3.2 mph 71 % 0.0 in
02:52 15.9 °F 10.9 °F 1013.8 in Calm   3.2 mph 72 % 0.0 in
02:57 15.8 °F 10.8 °F 1013.8 in Calm   3.2 mph 72 % 0.0 in
03:02 15.7 °F 10.9 °F 1013.8 in Calm   3.2 mph 73 % 0.0 in
03:07 15.4 °F 10.6 °F 1014.1 in Calm     73 % 0.0 in
03:12 15.3 °F 10.7 °F 1014.1 in Calm     74 % 0.0 in
03:17 15.3 °F 10.9 °F 1014.1 in Calm     75 % 0.0 in
03:22 15.2 °F 10.8 °F 1014.1 in Calm     75 % 0.0 in
03:27 15.2 °F 11.0 °F 1014.1 in NE 1.6 mph 1.6 mph 76 % 0.0 in
03:32 15.2 °F 11.0 °F 1014.1 in Calm   1.6 mph 76 % 0.0 in
03:37 15.3 °F 10.9 °F 1014.1 in Calm   1.6 mph 75 % 0.0 in
03:42 15.4 °F 11.0 °F 1014.1 in Calm   1.6 mph 75 % 0.0 in
03:47 15.4 °F 11.4 °F 1013.8 in Calm   1.6 mph 77 % 0.0 in
03:52 15.3 °F 11.5 °F 1014.1 in Calm     78 % 0.0 in
03:57 15.2 °F 11.4 °F 1014.1 in Calm     78 % 0.0 in
04:02 15.1 °F 11.3 °F 1014.1 in Calm     78 % 0.0 in
04:07 15.1 °F 11.5 °F 1014.1 in Calm     79 % 0.0 in
04:12 15.0 °F 11.4 °F 1014.1 in Calm     79 % 0.0 in
04:17 15.0 °F 11.4 °F 1014.1 in Calm     79 % 0.0 in
04:22 15.0 °F 11.4 °F 1013.8 in Calm     79 % 0.0 in
04:27 15.0 °F 11.0 °F 1013.8 in Calm     77 % 0.0 in
04:32 15.1 °F 11.1 °F 1013.8 in Calm   1.6 mph 77 % 0.0 in
04:37 15.1 °F 11.3 °F 1013.8 in Calm   1.6 mph 78 % 0.0 in
04:42 15.1 °F 11.5 °F 1013.8 in Calm     79 % 0.0 in
04:47 14.9 °F 11.5 °F 1013.8 in Calm   1.6 mph 80 % 0.0 in
04:52 14.9 °F 11.5 °F 1013.8 in Calm   3.2 mph 80 % 0.0 in
04:57 14.8 °F 11.4 °F 1014.1 in NNW 1.6 mph 3.2 mph 80 % 0.0 in
05:02 14.8 °F 11.4 °F 1014.1 in Calm   3.2 mph 80 % 0.0 in
05:22 14.8 °F 11.6 °F 1014.1 in Calm   1.6 mph 81 % 0.0 in
05:27 14.8 °F 11.6 °F 1014.1 in Calm   1.6 mph 81 % 0.0 in
05:32 14.7 °F 11.7 °F 1014.1 in Calm   1.6 mph 82 % 0.0 in
05:37 14.7 °F 11.7 °F 1014.1 in Calm     82 % 0.0 in
05:42 14.6 °F 11.6 °F 1014.1 in Calm     82 % 0.0 in
05:47 14.6 °F 11.6 °F 1014.1 in Calm     82 % 0.0 in
05:52 14.7 °F 11.7 °F 1014.1 in Calm     82 % 0.0 in
05:57 14.6 °F 11.6 °F 1014.1 in Calm     82 % 0.0 in
06:02 14.6 °F 11.6 °F 1014.1 in Calm     82 % 0.0 in
06:12 14.4 °F 11.5 °F 1014.1 in Calm     83 % 0.0 in
06:17 14.3 °F 11.3 °F 1014.1 in Calm   1.6 mph 82 % 0.0 in
06:22 14.3 °F 11.5 °F 1014.1 in Calm   1.6 mph 83 % 0.0 in
06:27 14.3 °F 11.3 °F 1014.4 in Calm   1.6 mph 82 % 0.0 in
06:32 14.3 °F 11.3 °F 1014.4 in Calm     82 % 0.0 in
06:42 14.3 °F 11.3 °F 1014.4 in Calm   1.6 mph 82 % 0.0 in
06:52 14.3 °F 11.3 °F 1014.4 in Calm   1.6 mph 82 % 0.0 in
07:02 14.3 °F 11.3 °F 1014.8 in Calm     82 % 0.0 in
07:12 14.4 °F 11.2 °F 1014.4 in Calm     81 % 0.0 in
07:17 14.5 °F 11.5 °F 1014.4 in Calm     82 % 0.0 in
07:22 14.6 °F 11.7 °F 1014.8 in Calm   3.2 mph 83 % 0.0 in
07:27 14.5 °F 11.6 °F 1014.8 in Calm   3.2 mph 83 % 0.0 in
07:32 14.6 °F 11.9 °F 1015.1 in Calm   3.2 mph 84 % 0.0 in
07:37 14.6 °F 11.9 °F 1015.1 in Calm   1.6 mph 84 % 0.0 in
07:42 14.6 °F 11.9 °F 1015.1 in Calm   1.6 mph 84 % 0.0 in
07:47 14.6 °F 11.9 °F 1015.1 in Calm   1.6 mph 84 % 0.0 in
07:52 14.6 °F 11.9 °F 1015.1 in Calm     84 % 0.0 in
07:57 14.7 °F 12.2 °F 1015.1 in Calm     85 % 0.0 in
08:02 14.7 °F 12.0 °F 1015.1 in Calm     84 % 0.0 in
08:12 14.8 °F 11.9 °F 1014.8 in Calm   1.6 mph 83 % 0.0 in
08:17 14.9 °F 11.7 °F 1014.8 in Calm   1.6 mph 81 % 0.0 in
08:22 15.1 °F 11.7 °F 1015.1 in Calm   3.2 mph 80 % 0.0 in
08:27 15.2 °F 11.8 °F 1015.1 in Calm   3.2 mph 80 % 0.0 in
08:32 15.2 °F 11.8 °F 1015.1 in Calm   3.2 mph 80 % 0.0 in
08:37 15.3 °F 11.9 °F 1015.1 in Calm   3.2 mph 80 % 0.0 in
08:42 15.4 °F 12.0 °F 1015.1 in Calm   1.6 mph 80 % 0.0 in
08:47 15.6 °F 12.0 °F 1015.1 in Calm   1.6 mph 79 % 0.0 in
08:52 15.6 °F 11.8 °F 1015.5 in SSE 1.6 mph 3.2 mph 78 % 0.0 in
08:57 15.8 °F 12.0 °F 1015.5 in Calm   3.2 mph 78 % 0.0 in
09:02 15.9 °F 12.1 °F 1015.5 in Calm   3.2 mph 78 % 0.0 in
09:12 16.1 °F 11.9 °F 1015.5 in SE 1.6 mph 3.2 mph 76 % 0.0 in
09:17 16.2 °F 12.0 °F 1015.5 in Calm   4.8 mph 76 % 0.0 in
09:22 16.4 °F 12.2 °F 1015.5 in South 4.8 mph 4.8 mph 76 % 0.0 in
09:27 16.8 °F 12.1 °F 1015.8 in South 4.8 mph 4.8 mph 74 % 0.0 in
09:32 17.2 °F 12.1 °F 1015.8 in SSW 6.4 mph 6.4 mph 72 % 0.0 in
09:37 17.4 °F 12.1 °F 1015.8 in SSW 6.4 mph 11.3 mph 71 % 0.0 in
09:42 17.5 °F 12.0 °F 1015.8 in Calm   11.3 mph 70 % 0.0 in
09:47 17.9 °F 12.1 °F 1015.8 in SE 4.8 mph 11.3 mph 69 % 0.0 in
09:52 18.1 °F 12.1 °F 1016.1 in SSE 3.2 mph 11.3 mph 68 % 0.0 in
09:57 18.1 °F 11.6 °F 1016.1 in SSE 6.4 mph 9.7 mph 66 % 0.0 in
10:02 18.4 °F 11.5 °F 1016.1 in ESE 6.4 mph 9.7 mph 64 % 0.0 in
10:12 18.7 °F 11.5 °F 1016.1 in SE 3.2 mph 16.1 mph 63 % 0.0 in
10:17 19.0 °F 11.3 °F 1016.1 in SSW 4.8 mph 16.1 mph 61 % 0.0 in
10:22 19.2 °F 11.7 °F 1016.1 in SW 8.0 mph 14.5 mph 62 % 0.0 in
10:27 19.4 °F 11.9 °F 1016.5 in WNW 3.2 mph 14.5 mph 62 % 0.0 in
10:32 19.8 °F 11.6 °F 1016.5 in SW 9.7 mph 11.3 mph 59 % 0.0 in
10:42 19.9 °F 11.9 °F 1016.5 in SW 4.8 mph 17.7 mph 60 % 0.0 in
10:52 20.3 °F 11.8 °F 1016.5 in WSW 4.8 mph 17.7 mph 58 % 0.0 in
10:57 20.3 °F 12.0 °F 1016.5 in West 3.2 mph 12.9 mph 59 % 0.0 in
11:02 20.4 °F 12.1 °F 1016.5 in SW 8.0 mph 11.3 mph 59 % 0.0 in
11:07 20.4 °F 12.1 °F 1016.5 in WSW 4.8 mph 14.5 mph 59 % 0.0 in
11:12 20.3 °F 12.0 °F 1016.5 in WNW 1.6 mph 14.5 mph 59 % 0.0 in
11:17 20.6 °F 12.0 °F 1016.8 in SSW 1.6 mph 14.5 mph 58 % 0.0 in
11:22 20.7 °F 12.1 °F 1016.8 in West 4.8 mph 14.5 mph 58 % 0.0 in
11:32 20.6 °F 11.8 °F 1016.8 in SSW 8.0 mph 16.1 mph 57 % 0.0 in
11:37 20.8 °F 12.2 °F 1016.8 in WNW 1.6 mph 16.1 mph 58 % 0.0 in
11:42 21.1 °F 12.0 °F 1016.8 in SSW 8.0 mph 16.1 mph 56 % 0.0 in
11:47 21.2 °F 12.1 °F 1017.2 in West 1.6 mph 12.9 mph 56 % 0.0 in
11:52 21.5 °F 12.1 °F 1017.2 in SSE 4.8 mph 12.9 mph 55 % 0.0 in
11:57 21.8 °F 12.1 °F 1017.2 in Calm   12.9 mph 54 % 0.0 in
12:02 21.8 °F 12.4 °F 1017.2 in WSW 9.7 mph 11.3 mph 55 % 0.0 in
12:07 22.0 °F 12.3 °F 1016.8 in SW 11.3 mph 11.3 mph 54 % 0.0 in
12:12 21.7 °F 12.5 °F 1016.8 in SSW 9.7 mph 17.7 mph 56 % 0.0 in
12:17 21.9 °F 12.2 °F 1017.2 in SW 11.3 mph 17.7 mph 54 % 0.0 in
12:22 21.9 °F 12.5 °F 1016.8 in SSW 8.0 mph 17.7 mph 55 % 0.0 in
12:27 21.9 °F 11.9 °F 1016.8 in SW 8.0 mph 17.7 mph 53 % 0.0 in
12:32 22.1 °F 12.4 °F 1016.8 in South 12.9 mph 17.7 mph 54 % 0.0 in
12:42 22.4 °F 12.6 °F 1016.8 in SW 16.1 mph 20.9 mph 54 % 0.0 in
12:47 22.5 °F 12.7 °F 1016.8 in SW 8.0 mph 17.7 mph 54 % 0.0 in
12:52 22.6 °F 13.1 °F 1016.8 in West 8.0 mph 17.7 mph 55 % 0.0 in
12:57 22.6 °F 13.1 °F 1016.8 in SSW 9.7 mph 19.3 mph 55 % 0.0 in
13:02 22.6 °F 12.8 °F 1016.8 in WSW 6.4 mph 20.9 mph 54 % 0.0 in
13:12 22.9 °F 12.8 °F 1016.8 in SSW 4.8 mph 22.5 mph 53 % 0.0 in
13:17 23.2 °F 12.8 °F 1016.8 in SW 8.0 mph 22.5 mph 52 % 0.0 in
13:22 23.1 °F 13.3 °F 1016.8 in South 11.3 mph 22.5 mph 54 % 0.0 in
13:32 23.4 °F 13.6 °F 1016.8 in SSW 12.9 mph 22.5 mph 54 % 0.0 in
13:37 23.4 °F 13.6 °F 1016.8 in South 1.6 mph 22.5 mph 54 % 0.0 in
13:42 23.6 °F 13.5 °F 1016.8 in WSW 8.0 mph 22.5 mph 53 % 0.0 in
13:47 23.8 °F 13.6 °F 1016.8 in SSW 16.1 mph 19.3 mph 53 % 0.0 in
13:52 24.1 °F 13.6 °F 1016.8 in SW 4.8 mph 20.9 mph 52 % 0.0 in
13:57 24.1 °F 13.6 °F 1016.8 in West 6.4 mph 20.9 mph 52 % 0.0 in
14:02 23.7 °F 13.8 °F 1016.8 in WSW 20.9 mph 20.9 mph 54 % 0.0 in
14:12 23.7 °F 13.8 °F 1017.2 in SW 19.3 mph 22.5 mph 54 % 0.0 in
14:17 23.7 °F 14.1 °F 1016.8 in SW 14.5 mph 25.7 mph 55 % 0.0 in
14:22 23.7 °F 13.8 °F 1016.8 in SSW 8.0 mph 25.7 mph 54 % 0.0 in
14:32 24.2 °F 14.6 °F 1017.2 in SW 8.0 mph 24.1 mph 55 % 0.0 in
14:37 24.1 °F 14.2 °F 1017.2 in West 12.9 mph 24.1 mph 54 % 0.0 in
14:42 24.1 °F 14.2 °F 1017.2 in SSW 4.8 mph 24.1 mph 54 % 0.0 in
14:47 24.2 °F 14.3 °F 1017.2 in West 12.9 mph 24.1 mph 54 % 0.0 in
14:52 24.1 °F 14.5 °F 1017.2 in WNW 12.9 mph 24.1 mph 55 % 0.0 in
14:57 24.1 °F 14.2 °F 1017.2 in WNW 9.7 mph 24.1 mph 54 % 0.0 in
15:02 24.2 °F 14.3 °F 1017.2 in SW 12.9 mph 24.1 mph 54 % 0.0 in
15:12 24.3 °F 14.4 °F 1017.2 in SW 6.4 mph 20.9 mph 54 % 0.0 in
15:17 24.4 °F 14.8 °F 1017.5 in NW 8.0 mph 20.9 mph 55 % 0.0 in
15:22 24.7 °F 14.8 °F 1017.5 in West 9.7 mph 19.3 mph 54 % 0.0 in
15:27 24.9 °F 14.4 °F 1017.5 in SSW 11.3 mph 17.7 mph 52 % 0.0 in
15:32 24.8 °F 14.6 °F 1017.5 in SW 9.7 mph 19.3 mph 53 % 0.0 in
15:37 24.7 °F 14.5 °F 1017.5 in WSW 14.5 mph 19.3 mph 53 % 0.0 in
15:42 24.8 °F 14.6 °F 1017.2 in SSE 6.4 mph 19.3 mph 53 % 0.0 in
15:47 24.7 °F 14.5 °F 1017.2 in WSW 12.9 mph 22.5 mph 53 % 0.0 in
15:52 24.5 °F 14.6 °F 1017.2 in WSW 8.0 mph 22.5 mph 54 % 0.0 in
15:57 24.4 °F 14.8 °F 1017.2 in WSW 3.2 mph 22.5 mph 55 % 0.0 in
16:02 24.4 °F 14.5 °F 1017.2 in West 8.0 mph 22.5 mph 54 % 0.0 in
16:07 24.3 °F 14.7 °F 1017.2 in SW 16.1 mph 22.5 mph 55 % 0.0 in
16:17 24.4 °F 14.8 °F 1017.2 in WSW 11.3 mph 20.9 mph 55 % 0.0 in
16:22 24.7 °F 15.1 °F 1017.2 in WSW 4.8 mph 20.9 mph 55 % 0.0 in
16:32 24.4 °F 15.1 °F 1017.2 in WSW 11.3 mph 16.1 mph 56 % 0.0 in
16:37 24.4 °F 15.3 °F 1017.2 in West 6.4 mph 17.7 mph 57 % 0.0 in
16:42 24.4 °F 15.3 °F 1017.2 in West 8.0 mph 20.9 mph 57 % 0.0 in
16:47 24.1 °F 15.3 °F 1017.5 in WNW 4.8 mph 20.9 mph 58 % 0.0 in
16:52 24.0 °F 15.2 °F 1017.5 in WSW 8.0 mph 20.9 mph 58 % 0.0 in
16:57 24.1 °F 15.3 °F 1017.5 in West 8.0 mph 19.3 mph 58 % 0.0 in
17:02 23.9 °F 15.1 °F 1017.5 in WNW 8.0 mph 19.3 mph 58 % 0.0 in
17:07 23.8 °F 15.6 °F 1017.5 in WSW 9.7 mph 19.3 mph 60 % 0.0 in
17:12 23.7 °F 15.2 °F 1017.5 in SW 9.7 mph 19.3 mph 59 % 0.0 in
17:17 23.7 °F 15.5 °F 1017.8 in West 9.7 mph 19.3 mph 60 % 0.0 in
17:22 23.6 °F 15.4 °F 1017.8 in West 6.4 mph 14.5 mph 60 % 0.0 in
17:32 23.4 °F 15.4 °F 1017.8 in WSW 4.8 mph 14.5 mph 61 % 0.0 in
17:37 23.4 °F 15.4 °F 1017.8 in SSW 6.4 mph 16.1 mph 61 % 0.0 in
17:42 23.3 °F 15.6 °F 1017.8 in West 8.0 mph 16.1 mph 62 % 0.0 in
17:47 23.4 °F 15.7 °F 1017.8 in West 6.4 mph 16.1 mph 62 % 0.0 in
17:52 23.3 °F 15.6 °F 1017.8 in WSW 4.8 mph 14.5 mph 62 % 0.0 in
18:02 23.3 °F 15.9 °F 1017.8 in WSW 6.4 mph 17.7 mph 63 % 0.0 in
18:07 23.4 °F 16.0 °F 1017.8 in West 4.8 mph 17.7 mph 63 % 0.0 in
18:12 23.4 °F 16.2 °F 1018.2 in WNW 9.7 mph 12.9 mph 64 % 0.0 in
18:17 23.5 °F 16.3 °F 1018.2 in West 4.8 mph 11.3 mph 64 % 0.0 in
18:22 23.5 °F 16.0 °F 1018.2 in West 4.8 mph 11.3 mph 63 % 0.0 in
18:32 23.3 °F 16.1 °F 1018.2 in West 4.8 mph 14.5 mph 64 % 0.0 in
18:42 23.3 °F 16.1 °F 1018.2 in West 4.8 mph 14.5 mph 64 % 0.0 in
18:47 23.2 °F 16.0 °F 1018.2 in West 6.4 mph 12.9 mph 64 % 0.0 in
18:52 23.2 °F 16.3 °F 1018.2 in West 6.4 mph 12.9 mph 65 % 0.0 in
18:57 23.1 °F 16.2 °F 1018.5 in WNW 8.0 mph 12.9 mph 65 % 0.0 in
19:02 23.1 °F 16.2 °F 1018.5 in West 6.4 mph 12.9 mph 65 % 0.0 in
19:07 23.0 °F 16.3 °F 1018.2 in West 8.0 mph 11.3 mph 66 % 0.0 in
19:12 23.0 °F 16.3 °F 1018.5 in WSW 6.4 mph 11.3 mph 66 % 0.0 in
19:17 23.1 °F 16.4 °F 1018.5 in WNW 8.0 mph 11.3 mph 66 % 0.0 in
19:22 23.2 °F 16.3 °F 1018.5 in WNW 4.8 mph 11.3 mph 65 % 0.0 in
19:27 23.1 °F 16.2 °F 1018.5 in WSW 6.4 mph 12.9 mph 65 % 0.0 in
19:32 22.9 °F 16.2 °F 1018.5 in WNW 4.8 mph 12.9 mph 66 % 0.0 in
19:37 22.8 °F 16.1 °F 1018.5 in West 9.7 mph 11.3 mph 66 % 0.0 in
19:42 22.6 °F 16.2 °F 1018.8 in West 8.0 mph 16.1 mph 67 % 0.0 in
19:47 22.5 °F 16.1 °F 1018.8 in WSW 9.7 mph 16.1 mph 67 % 0.0 in
19:52 22.4 °F 16.2 °F 1018.8 in WSW 6.4 mph 16.1 mph 68 % 0.0 in
19:57 22.3 °F 16.1 °F 1018.8 in WSW 3.2 mph 14.5 mph 68 % 0.0 in
20:02 22.4 °F 16.2 °F 1018.8 in WNW 4.8 mph 11.3 mph 68 % 0.0 in
20:07 22.2 °F 16.0 °F 1018.8 in WNW 8.0 mph 12.9 mph 68 % 0.0 in
20:12 22.1 °F 16.1 °F 1018.8 in WNW 4.8 mph 12.9 mph 69 % 0.0 in
20:17 21.9 °F 16.2 °F 1018.8 in WNW 4.8 mph 12.9 mph 70 % 0.0 in
20:22 21.8 °F 16.1 °F 1019.2 in West 1.6 mph 11.3 mph 70 % 0.0 in
20:27 21.7 °F 16.0 °F 1019.2 in West 3.2 mph 9.7 mph 70 % 0.0 in
20:32 21.6 °F 15.9 °F 1019.2 in West 1.6 mph 9.7 mph 70 % 0.0 in
20:37 21.4 °F 15.9 °F 1019.2 in West 1.6 mph 6.4 mph 71 % 0.0 in
20:42 21.3 °F 15.8 °F 1019.2 in West 3.2 mph 6.4 mph 71 % 0.0 in
20:47 21.2 °F 15.7 °F 1019.5 in WSW 4.8 mph 6.4 mph 71 % 0.0 in
20:52 21.1 °F 15.9 °F 1019.5 in WNW 3.2 mph 6.4 mph 72 % 0.0 in
20:57 20.9 °F 15.7 °F 1019.5 in West 1.6 mph 6.4 mph 72 % 0.0 in
21:02 20.8 °F 15.6 °F 1019.5 in Calm   6.4 mph 72 % 0.0 in
21:07 20.7 °F 15.7 °F 1019.5 in Calm   4.8 mph 73 % 0.0 in
21:12 20.6 °F 15.6 °F 1019.9 in West 1.6 mph 4.8 mph 73 % 0.0 in
21:17 20.4 °F 15.4 °F 1019.9 in Calm   3.2 mph 73 % 0.0 in
21:22 20.2 °F 15.4 °F 1019.9 in Calm   3.2 mph 74 % 0.0 in
21:32 20.2 °F 15.6 °F 1019.9 in Calm   3.2 mph 75 % 0.0 in
21:37 20.1 °F 15.5 °F 1019.9 in WSW 1.6 mph 3.2 mph 75 % 0.0 in
21:42 19.9 °F 15.3 °F 1019.9 in Calm   3.2 mph 75 % 0.0 in
21:47 19.8 °F 15.4 °F 1019.9 in Calm   3.2 mph 76 % 0.0 in
21:52 19.6 °F 15.5 °F 1019.9 in Calm   3.2 mph 77 % 0.0 in
21:57 19.3 °F 15.2 °F 1019.9 in Calm   3.2 mph 77 % 0.0 in
22:02 19.1 °F 15.2 °F 1019.9 in Calm   3.2 mph 78 % 0.0 in
22:12 18.9 °F 15.2 °F 1019.9 in Calm   1.6 mph 79 % 0.0 in
22:17 18.8 °F 15.3 °F 1019.9 in Calm   1.6 mph 80 % 0.0 in
22:22 18.8 °F 15.3 °F 1020.2 in Calm   1.6 mph 80 % 0.0 in
22:27 18.6 °F 15.1 °F 1020.2 in Calm   1.6 mph 80 % 0.0 in
22:32 18.3 °F 15.0 °F 1020.2 in ENE 1.6 mph 1.6 mph 81 % 0.0 in
22:37 18.4 °F 15.1 °F 1020.2 in Calm   3.2 mph 81 % 0.0 in
22:42 18.4 °F 15.1 °F 1020.5 in Calm   3.2 mph 81 % 0.0 in
22:47 18.4 °F 15.1 °F 1020.2 in Calm   3.2 mph 81 % 0.0 in
22:52 18.4 °F 15.1 °F 1020.2 in Calm   1.6 mph 81 % 0.0 in
22:57 18.4 °F 15.1 °F 1020.2 in Calm     81 % 0.0 in
23:02 18.3 °F 15.0 °F 1020.2 in Calm     81 % 0.0 in
23:07 18.2 °F 14.9 °F 1020.5 in Calm     81 % 0.0 in
23:12 18.2 °F 14.9 °F 1020.5 in Calm     81 % 0.0 in
23:17 18.2 °F 15.1 °F 1020.5 in Calm     82 % 0.0 in
23:22 18.1 °F 15.0 °F 1020.5 in Calm     82 % 0.0 in
23:27 18.1 °F 15.0 °F 1020.5 in Calm     82 % 0.0 in
23:32 18.2 °F 15.3 °F 1020.5 in Calm     83 % 0.0 in
23:37 18.2 °F 15.3 °F 1020.5 in Calm     83 % 0.0 in
23:42 18.2 °F 15.1 °F 1020.2 in Calm     82 % 0.0 in
23:47 18.2 °F 15.3 °F 1020.5 in Calm     83 % 0.0 in
23:52 18.2 °F 15.3 °F 1020.5 in Calm     83 % 0.0 in
23:57 18.2 °F 15.3 °F 1020.2 in Calm     83 % 0.0 in
Meteo18
Compliments of Weather Underground - 4 mb

Script developed by  Jim McMurry - jmcmurry@mwt.net Adapted for the template by  Wim van der Kuil - Leuven-Template.eu

You find our weather info also at:

European Weather Network

Weather Underground

Equipment we use:

Weather-station
Davis Vue

Weather-program
Meteobridge

Weather-server
Raspberry PI 2 B+

Provider
1 and 1

Davis Vue

Meteobridge

Raspberry PI 2 B+

1 and 1